sensor_id;sensor_type;location;lat;lon;timestamp;P1;P2;P0
12542;PMS3003;6337;49.556;25.594;2022-11-15T00:01:32;34.27;19.33;
12542;PMS3003;6337;49.556;25.594;2022-11-15T00:04:05;28.30;16.90;
12542;PMS3003;6337;49.556;25.594;2022-11-15T00:06:35;27.87;17.27;
12542;PMS3003;6337;49.556;25.594;2022-11-15T00:09:04;32.33;17.67;
12542;PMS3003;6337;49.556;25.594;2022-11-15T00:11:32;31.73;19.07;
12542;PMS3003;6337;49.556;25.594;2022-11-15T00:14:00;30.30;19.83;
12542;PMS3003;6337;49.556;25.594;2022-11-15T00:16:30;31.43;18.07;
12542;PMS3003;6337;49.556;25.594;2022-11-15T00:19:02;34.37;21.10;
12542;PMS3003;6337;49.556;25.594;2022-11-15T00:21:39;26.13;17.00;
12542;PMS3003;6337;49.556;25.594;2022-11-15T00:24:14;37.03;18.00;
12542;PMS3003;6337;49.556;25.594;2022-11-15T00:26:45;35.67;18.10;
12542;PMS3003;6337;49.556;25.594;2022-11-15T00:29:15;31.30;17.33;
12542;PMS3003;6337;49.556;25.594;2022-11-15T00:31:43;37.13;15.70;
12542;PMS3003;6337;49.556;25.594;2022-11-15T00:34:12;25.80;15.40;
12542;PMS3003;6337;49.556;25.594;2022-11-15T00:36:56;31.57;17.73;
12542;PMS3003;6337;49.556;25.594;2022-11-15T00:39:25;30.10;18.20;
12542;PMS3003;6337;49.556;25.594;2022-11-15T00:41:55;24.13;15.30;
12542;PMS3003;6337;49.556;25.594;2022-11-15T00:44:25;29.57;16.60;
12542;PMS3003;6337;49.556;25.594;2022-11-15T00:46:54;28.40;17.90;
12542;PMS3003;6337;49.556;25.594;2022-11-15T00:49:24;30.90;17.20;
12542;PMS3003;6337;49.556;25.594;2022-11-15T00:51:53;29.00;16.90;
12542;PMS3003;6337;49.556;25.594;2022-11-15T00:54:28;30.93;18.63;
12542;PMS3003;6337;49.556;25.594;2022-11-15T00:56:58;29.33;18.23;
12542;PMS3003;6337;49.556;25.594;2022-11-15T00:59:33;34.20;18.70;
12542;PMS3003;6337;49.556;25.594;2022-11-15T01:02:11;28.00;19.70;
12542;PMS3003;6337;49.556;25.594;2022-11-15T01:04:39;32.57;19.40;
12542;PMS3003;6337;49.556;25.594;2022-11-15T01:07:06;33.27;17.33;
12542;PMS3003;6337;49.556;25.594;2022-11-15T01:09:37;34.00;19.20;
12542;PMS3003;6337;49.556;25.594;2022-11-15T01:12:05;35.07;19.33;
12542;PMS3003;6337;49.556;25.594;2022-11-15T01:14:44;33.17;18.67;
12542;PMS3003;6337;49.556;25.594;2022-11-15T01:17:15;33.17;18.33;
12542;PMS3003;6337;49.556;25.594;2022-11-15T01:19:42;37.43;21.70;
12542;PMS3003;6337;49.556;25.594;2022-11-15T01:22:15;37.40;19.77;
12542;PMS3003;6337;49.556;25.594;2022-11-15T01:24:49;34.77;19.17;
12542;PMS3003;6337;49.556;25.594;2022-11-15T01:27:17;33.40;18.53;
12542;PMS3003;6337;49.556;25.594;2022-11-15T01:29:46;26.10;15.67;
12542;PMS3003;6337;49.556;25.594;2022-11-15T01:32:14;30.47;16.47;
12542;PMS3003;6337;49.556;25.594;2022-11-15T01:34:42;34.97;19.97;
12542;PMS3003;6337;49.556;25.594;2022-11-15T01:37:10;33.80;18.77;
12542;PMS3003;6337;49.556;25.594;2022-11-15T01:39:39;37.17;20.40;
12542;PMS3003;6337;49.556;25.594;2022-11-15T01:42:10;36.20;20.57;
12542;PMS3003;6337;49.556;25.594;2022-11-15T01:44:42;52.70;20.33;
12542;PMS3003;6337;49.556;25.594;2022-11-15T01:47:14;31.63;18.77;
12542;PMS3003;6337;49.556;25.594;2022-11-15T01:49:52;44.07;19.20;
12542;PMS3003;6337;49.556;25.594;2022-11-15T01:52:26;33.73;19.30;
12542;PMS3003;6337;49.556;25.594;2022-11-15T01:54:57;39.00;20.83;
12542;PMS3003;6337;49.556;25.594;2022-11-15T01:57:38;37.53;21.23;
12542;PMS3003;6337;49.556;25.594;2022-11-15T02:00:07;31.50;19.93;
12542;PMS3003;6337;49.556;25.594;2022-11-15T02:02:36;31.37;18.80;
12542;PMS3003;6337;49.556;25.594;2022-11-15T02:05:07;33.33;19.87;
12542;PMS3003;6337;49.556;25.594;2022-11-15T02:07:36;33.80;20.53;
12542;PMS3003;6337;49.556;25.594;2022-11-15T02:10:11;37.67;17.40;
12542;PMS3003;6337;49.556;25.594;2022-11-15T02:12:46;35.60;19.07;
12542;PMS3003;6337;49.556;25.594;2022-11-15T02:15:14;30.60;18.07;
12542;PMS3003;6337;49.556;25.594;2022-11-15T02:17:50;35.03;17.73;
12542;PMS3003;6337;49.556;25.594;2022-11-15T02:20:30;30.53;19.07;
12542;PMS3003;6337;49.556;25.594;2022-11-15T02:23:11;39.80;20.13;
12542;PMS3003;6337;49.556;25.594;2022-11-15T02:25:47;30.50;16.70;
12542;PMS3003;6337;49.556;25.594;2022-11-15T02:28:30;30.40;18.90;
12542;PMS3003;6337;49.556;25.594;2022-11-15T02:31:04;29.00;16.90;
12542;PMS3003;6337;49.556;25.594;2022-11-15T02:33:35;35.43;18.40;
12542;PMS3003;6337;49.556;25.594;2022-11-15T02:36:10;29.77;18.57;
12542;PMS3003;6337;49.556;25.594;2022-11-15T02:38:40;32.30;20.40;
12542;PMS3003;6337;49.556;25.594;2022-11-15T02:41:14;36.47;19.70;
12542;PMS3003;6337;49.556;25.594;2022-11-15T02:43:46;33.17;18.83;
12542;PMS3003;6337;49.556;25.594;2022-11-15T02:46:29;35.93;21.93;
12542;PMS3003;6337;49.556;25.594;2022-11-15T02:49:19;31.23;19.43;
12542;PMS3003;6337;49.556;25.594;2022-11-15T02:51:48;32.77;20.63;
12542;PMS3003;6337;49.556;25.594;2022-11-15T02:54:20;37.17;21.37;
12542;PMS3003;6337;49.556;25.594;2022-11-15T02:56:53;37.93;19.80;
12542;PMS3003;6337;49.556;25.594;2022-11-15T03:02:20;38.77;22.07;
12542;PMS3003;6337;49.556;25.594;2022-11-15T03:04:51;41.43;19.10;
12542;PMS3003;6337;49.556;25.594;2022-11-15T03:07:23;41.67;22.20;
12542;PMS3003;6337;49.556;25.594;2022-11-15T03:09:56;33.90;20.10;
12542;PMS3003;6337;49.556;25.594;2022-11-15T03:12:25;34.63;20.40;
12542;PMS3003;6337;49.556;25.594;2022-11-15T03:15:00;40.80;21.10;
12542;PMS3003;6337;49.556;25.594;2022-11-15T03:17:32;32.73;18.17;
12542;PMS3003;6337;49.556;25.594;2022-11-15T03:20:04;37.93;18.90;
12542;PMS3003;6337;49.556;25.594;2022-11-15T03:22:35;36.93;18.70;
12542;PMS3003;6337;49.556;25.594;2022-11-15T03:25:10;36.50;19.60;
12542;PMS3003;6337;49.556;25.594;2022-11-15T03:27:41;38.50;19.90;
12542;PMS3003;6337;49.556;25.594;2022-11-15T03:30:12;39.20;20.70;
12542;PMS3003;6337;49.556;25.594;2022-11-15T03:32:44;37.20;18.47;
12542;PMS3003;6337;49.556;25.594;2022-11-15T03:35:15;33.93;21.67;
12542;PMS3003;6337;49.556;25.594;2022-11-15T03:37:49;33.83;20.73;
12542;PMS3003;6337;49.556;25.594;2022-11-15T03:40:20;40.60;20.20;
12542;PMS3003;6337;49.556;25.594;2022-11-15T03:43:15;37.30;19.80;
12542;PMS3003;6337;49.556;25.594;2022-11-15T03:45:50;34.77;20.43;
12542;PMS3003;6337;49.556;25.594;2022-11-15T03:48:24;37.40;19.53;
12542;PMS3003;6337;49.556;25.594;2022-11-15T03:50:54;35.67;21.27;
12542;PMS3003;6337;49.556;25.594;2022-11-15T03:53:25;34.40;19.90;
12542;PMS3003;6337;49.556;25.594;2022-11-15T03:55:53;32.33;18.43;
12542;PMS3003;6337;49.556;25.594;2022-11-15T03:58:22;31.73;17.43;
12542;PMS3003;6337;49.556;25.594;2022-11-15T04:00:53;40.20;21.63;
12542;PMS3003;6337;49.556;25.594;2022-11-15T04:03:28;33.97;18.97;
12542;PMS3003;6337;49.556;25.594;2022-11-15T04:05:56;35.67;18.63;
12542;PMS3003;6337;49.556;25.594;2022-11-15T04:08:24;36.30;19.30;
12542;PMS3003;6337;49.556;25.594;2022-11-15T04:10:52;48.43;19.80;
12542;PMS3003;6337;49.556;25.594;2022-11-15T04:13:22;31.00;19.30;
12542;PMS3003;6337;49.556;25.594;2022-11-15T04:15:52;37.20;22.10;
12542;PMS3003;6337;49.556;25.594;2022-11-15T04:18:20;40.27;20.17;
12542;PMS3003;6337;49.556;25.594;2022-11-15T04:20:55;47.53;22.13;
12542;PMS3003;6337;49.556;25.594;2022-11-15T04:23:40;44.10;19.67;
12542;PMS3003;6337;49.556;25.594;2022-11-15T04:26:27;36.90;18.47;
12542;PMS3003;6337;49.556;25.594;2022-11-15T04:28:55;38.00;19.33;
12542;PMS3003;6337;49.556;25.594;2022-11-15T04:31:52;33.27;18.20;
12542;PMS3003;6337;49.556;25.594;2022-11-15T04:34:20;35.70;18.90;
12542;PMS3003;6337;49.556;25.594;2022-11-15T04:36:55;31.60;18.80;
12542;PMS3003;6337;49.556;25.594;2022-11-15T04:39:39;37.43;19.73;
12542;PMS3003;6337;49.556;25.594;2022-11-15T04:42:07;34.43;17.30;
12542;PMS3003;6337;49.556;25.594;2022-11-15T04:44:49;37.33;19.57;
12542;PMS3003;6337;49.556;25.594;2022-11-15T04:47:16;38.77;18.20;
12542;PMS3003;6337;49.556;25.594;2022-11-15T04:49:44;36.17;19.00;
12542;PMS3003;6337;49.556;25.594;2022-11-15T04:52:14;44.83;19.70;
12542;PMS3003;6337;49.556;25.594;2022-11-15T04:54:42;35.87;20.23;
12542;PMS3003;6337;49.556;25.594;2022-11-15T04:57:10;41.67;20.17;
12542;PMS3003;6337;49.556;25.594;2022-11-15T04:59:38;40.73;19.30;
12542;PMS3003;6337;49.556;25.594;2022-11-15T05:02:08;42.23;20.27;
12542;PMS3003;6337;49.556;25.594;2022-11-15T05:04:38;33.57;17.43;
12542;PMS3003;6337;49.556;25.594;2022-11-15T05:07:04;34.20;19.40;
12542;PMS3003;6337;49.556;25.594;2022-11-15T05:09:40;35.30;18.37;
12542;PMS3003;6337;49.556;25.594;2022-11-15T05:12:09;30.83;18.40;
12542;PMS3003;6337;49.556;25.594;2022-11-15T05:14:46;34.40;17.47;
12542;PMS3003;6337;49.556;25.594;2022-11-15T05:17:22;29.87;17.67;
12542;PMS3003;6337;49.556;25.594;2022-11-15T05:19:49;34.60;17.87;
12542;PMS3003;6337;49.556;25.594;2022-11-15T05:22:19;45.93;18.40;
12542;PMS3003;6337;49.556;25.594;2022-11-15T05:24:55;35.93;18.17;
12542;PMS3003;6337;49.556;25.594;2022-11-15T05:27:37;32.60;17.33;
12542;PMS3003;6337;49.556;25.594;2022-11-15T05:30:05;49.70;20.70;
12542;PMS3003;6337;49.556;25.594;2022-11-15T05:32:37;41.13;18.70;
12542;PMS3003;6337;49.556;25.594;2022-11-15T05:35:13;36.40;19.17;
12542;PMS3003;6337;49.556;25.594;2022-11-15T05:37:43;35.00;18.50;
12542;PMS3003;6337;49.556;25.594;2022-11-15T05:40:23;34.07;19.77;
12542;PMS3003;6337;49.556;25.594;2022-11-15T05:42:52;34.87;17.93;
12542;PMS3003;6337;49.556;25.594;2022-11-15T05:45:21;35.90;19.67;
12542;PMS3003;6337;49.556;25.594;2022-11-15T05:47:55;42.97;19.50;
12542;PMS3003;6337;49.556;25.594;2022-11-15T05:50:30;44.40;20.50;
12542;PMS3003;6337;49.556;25.594;2022-11-15T05:52:59;44.93;21.60;
12542;PMS3003;6337;49.556;25.594;2022-11-15T05:55:33;39.37;19.37;
12542;PMS3003;6337;49.556;25.594;2022-11-15T05:58:02;33.60;19.20;
12542;PMS3003;6337;49.556;25.594;2022-11-15T06:00:31;35.80;19.30;
12542;PMS3003;6337;49.556;25.594;2022-11-15T06:02:59;36.07;18.67;
12542;PMS3003;6337;49.556;25.594;2022-11-15T06:05:27;41.20;17.97;
12542;PMS3003;6337;49.556;25.594;2022-11-15T06:07:58;49.00;21.57;
12542;PMS3003;6337;49.556;25.594;2022-11-15T06:10:42;44.23;23.20;
12542;PMS3003;6337;49.556;25.594;2022-11-15T06:13:19;40.07;22.43;
12542;PMS3003;6337;49.556;25.594;2022-11-15T06:15:46;37.07;20.20;
12542;PMS3003;6337;49.556;25.594;2022-11-15T06:18:14;44.57;22.97;
12542;PMS3003;6337;49.556;25.594;2022-11-15T06:20:43;49.00;21.60;
12542;PMS3003;6337;49.556;25.594;2022-11-15T06:23:13;52.33;22.57;
12542;PMS3003;6337;49.556;25.594;2022-11-15T06:25:57;49.17;22.50;
12542;PMS3003;6337;49.556;25.594;2022-11-15T06:28:27;52.33;20.70;
12542;PMS3003;6337;49.556;25.594;2022-11-15T06:31:01;68.03;24.10;
12542;PMS3003;6337;49.556;25.594;2022-11-15T06:33:32;43.97;20.70;
12542;PMS3003;6337;49.556;25.594;2022-11-15T06:36:02;41.30;21.13;
12542;PMS3003;6337;49.556;25.594;2022-11-15T06:38:29;43.13;19.60;
12542;PMS3003;6337;49.556;25.594;2022-11-15T06:41:02;54.33;18.93;
12542;PMS3003;6337;49.556;25.594;2022-11-15T06:43:30;51.53;21.73;
12542;PMS3003;6337;49.556;25.594;2022-11-15T06:45:59;58.03;22.83;
12542;PMS3003;6337;49.556;25.594;2022-11-15T06:48:28;52.20;26.10;
12542;PMS3003;6337;49.556;25.594;2022-11-15T06:51:01;66.73;25.87;
12542;PMS3003;6337;49.556;25.594;2022-11-15T06:53:31;47.30;22.60;
12542;PMS3003;6337;49.556;25.594;2022-11-15T06:58:49;55.30;22.60;
12542;PMS3003;6337;49.556;25.594;2022-11-15T07:01:19;59.80;23.30;
12542;PMS3003;6337;49.556;25.594;2022-11-15T07:03:47;52.73;27.03;
12542;PMS3003;6337;49.556;25.594;2022-11-15T07:06:15;51.40;25.60;
12542;PMS3003;6337;49.556;25.594;2022-11-15T07:08:44;47.73;23.73;
12542;PMS3003;6337;49.556;25.594;2022-11-15T07:11:13;49.07;24.50;
12542;PMS3003;6337;49.556;25.594;2022-11-15T07:13:43;48.47;24.37;
12542;PMS3003;6337;49.556;25.594;2022-11-15T07:16:17;57.23;24.93;
12542;PMS3003;6337;49.556;25.594;2022-11-15T07:18:47;55.50;22.07;
12542;PMS3003;6337;49.556;25.594;2022-11-15T07:21:23;43.60;22.80;
12542;PMS3003;6337;49.556;25.594;2022-11-15T07:23:51;56.37;27.33;
12542;PMS3003;6337;49.556;25.594;2022-11-15T07:26:19;46.00;22.60;
12542;PMS3003;6337;49.556;25.594;2022-11-15T07:28:52;49.40;24.07;
12542;PMS3003;6337;49.556;25.594;2022-11-15T07:31:41;43.73;23.47;
12542;PMS3003;6337;49.556;25.594;2022-11-15T07:34:10;41.50;20.77;
12542;PMS3003;6337;49.556;25.594;2022-11-15T07:36:38;84.60;25.17;
12542;PMS3003;6337;49.556;25.594;2022-11-15T07:39:08;46.23;21.17;
12542;PMS3003;6337;49.556;25.594;2022-11-15T07:41:51;44.13;21.60;
12542;PMS3003;6337;49.556;25.594;2022-11-15T07:44:39;56.37;23.77;
12542;PMS3003;6337;49.556;25.594;2022-11-15T07:47:14;46.60;22.47;
12542;PMS3003;6337;49.556;25.594;2022-11-15T07:49:43;48.83;23.83;
12542;PMS3003;6337;49.556;25.594;2022-11-15T07:52:11;53.47;26.67;
12542;PMS3003;6337;49.556;25.594;2022-11-15T07:54:39;46.27;22.47;
12542;PMS3003;6337;49.556;25.594;2022-11-15T07:57:07;52.90;29.33;
12542;PMS3003;6337;49.556;25.594;2022-11-15T07:59:42;47.90;25.53;
12542;PMS3003;6337;49.556;25.594;2022-11-15T08:02:12;52.67;23.87;
12542;PMS3003;6337;49.556;25.594;2022-11-15T08:04:42;57.33;26.10;
12542;PMS3003;6337;49.556;25.594;2022-11-15T08:07:11;58.67;25.23;
12542;PMS3003;6337;49.556;25.594;2022-11-15T08:09:38;48.67;24.67;
12542;PMS3003;6337;49.556;25.594;2022-11-15T08:12:09;50.83;22.30;
12542;PMS3003;6337;49.556;25.594;2022-11-15T08:14:39;58.40;23.00;
12542;PMS3003;6337;49.556;25.594;2022-11-15T08:17:09;53.47;24.20;
12542;PMS3003;6337;49.556;25.594;2022-11-15T08:19:38;91.10;29.10;
12542;PMS3003;6337;49.556;25.594;2022-11-15T08:22:07;51.37;23.97;
12542;PMS3003;6337;49.556;25.594;2022-11-15T08:24:39;55.03;24.33;
12542;PMS3003;6337;49.556;25.594;2022-11-15T08:27:14;44.43;22.10;
12542;PMS3003;6337;49.556;25.594;2022-11-15T08:29:43;47.07;23.63;
12542;PMS3003;6337;49.556;25.594;2022-11-15T08:32:17;45.73;19.10;
12542;PMS3003;6337;49.556;25.594;2022-11-15T08:34:50;39.50;21.40;
12542;PMS3003;6337;49.556;25.594;2022-11-15T08:37:20;41.73;20.60;
12542;PMS3003;6337;49.556;25.594;2022-11-15T08:39:48;40.33;21.00;
12542;PMS3003;6337;49.556;25.594;2022-11-15T08:42:32;48.53;20.47;
12542;PMS3003;6337;49.556;25.594;2022-11-15T08:45:01;40.70;21.37;
12542;PMS3003;6337;49.556;25.594;2022-11-15T08:47:29;44.73;22.10;
12542;PMS3003;6337;49.556;25.594;2022-11-15T08:50:08;44.13;22.90;
12542;PMS3003;6337;49.556;25.594;2022-11-15T08:52:38;35.00;18.57;
12542;PMS3003;6337;49.556;25.594;2022-11-15T08:55:11;30.53;18.10;
12542;PMS3003;6337;49.556;25.594;2022-11-15T08:57:40;45.67;22.47;
12542;PMS3003;6337;49.556;25.594;2022-11-15T09:00:09;36.20;19.33;
12542;PMS3003;6337;49.556;25.594;2022-11-15T09:02:38;64.53;22.73;
12542;PMS3003;6337;49.556;25.594;2022-11-15T09:05:09;54.37;27.43;
12542;PMS3003;6337;49.556;25.594;2022-11-15T09:07:37;47.10;21.87;
12542;PMS3003;6337;49.556;25.594;2022-11-15T09:10:05;53.83;23.67;
12542;PMS3003;6337;49.556;25.594;2022-11-15T09:12:33;43.23;22.07;
12542;PMS3003;6337;49.556;25.594;2022-11-15T09:15:00;43.30;22.33;
12542;PMS3003;6337;49.556;25.594;2022-11-15T09:17:28;37.63;20.10;
12542;PMS3003;6337;49.556;25.594;2022-11-15T09:19:55;43.10;25.13;
12542;PMS3003;6337;49.556;25.594;2022-11-15T09:22:29;50.87;19.20;
12542;PMS3003;6337;49.556;25.594;2022-11-15T09:24:56;41.40;20.43;
12542;PMS3003;6337;49.556;25.594;2022-11-15T09:27:26;47.73;27.13;
12542;PMS3003;6337;49.556;25.594;2022-11-15T09:30:03;51.53;26.37;
12542;PMS3003;6337;49.556;25.594;2022-11-15T09:32:33;53.70;23.20;
12542;PMS3003;6337;49.556;25.594;2022-11-15T09:35:02;55.93;25.93;
12542;PMS3003;6337;49.556;25.594;2022-11-15T09:37:32;41.87;22.37;
12542;PMS3003;6337;49.556;25.594;2022-11-15T09:40:00;38.73;21.00;
12542;PMS3003;6337;49.556;25.594;2022-11-15T09:42:34;44.13;21.97;
12542;PMS3003;6337;49.556;25.594;2022-11-15T09:45:13;51.37;20.40;
12542;PMS3003;6337;49.556;25.594;2022-11-15T09:47:49;40.83;20.40;
12542;PMS3003;6337;49.556;25.594;2022-11-15T09:50:28;37.80;17.93;
12542;PMS3003;6337;49.556;25.594;2022-11-15T09:53:04;35.00;17.80;
12542;PMS3003;6337;49.556;25.594;2022-11-15T09:55:34;41.37;20.77;
12542;PMS3003;6337;49.556;25.594;2022-11-15T09:58:05;46.70;23.27;
12542;PMS3003;6337;49.556;25.594;2022-11-15T10:00:39;44.77;20.67;
12542;PMS3003;6337;49.556;25.594;2022-11-15T10:03:11;48.23;22.30;
12542;PMS3003;6337;49.556;25.594;2022-11-15T10:05:55;43.23;22.57;
12542;PMS3003;6337;49.556;25.594;2022-11-15T10:08:39;50.77;22.17;
12542;PMS3003;6337;49.556;25.594;2022-11-15T10:11:11;44.73;21.70;
12542;PMS3003;6337;49.556;25.594;2022-11-15T10:13:45;50.23;21.03;
12542;PMS3003;6337;49.556;25.594;2022-11-15T10:16:20;38.83;18.57;
12542;PMS3003;6337;49.556;25.594;2022-11-15T10:18:55;46.30;23.93;
12542;PMS3003;6337;49.556;25.594;2022-11-15T10:21:32;40.57;20.93;
12542;PMS3003;6337;49.556;25.594;2022-11-15T10:24:09;43.80;20.97;
12542;PMS3003;6337;49.556;25.594;2022-11-15T10:26:38;36.90;18.20;
12542;PMS3003;6337;49.556;25.594;2022-11-15T10:29:07;46.33;23.93;
12542;PMS3003;6337;49.556;25.594;2022-11-15T10:31:37;47.70;22.60;
12542;PMS3003;6337;49.556;25.594;2022-11-15T10:34:10;52.20;25.00;
12542;PMS3003;6337;49.556;25.594;2022-11-15T10:36:43;55.57;25.93;
12542;PMS3003;6337;49.556;25.594;2022-11-15T10:39:15;47.20;24.80;
12542;PMS3003;6337;49.556;25.594;2022-11-15T10:41:44;40.37;20.60;
12542;PMS3003;6337;49.556;25.594;2022-11-15T10:44:23;45.57;20.40;
12542;PMS3003;6337;49.556;25.594;2022-11-15T10:49:53;36.50;20.73;
12542;PMS3003;6337;49.556;25.594;2022-11-15T10:52:22;54.77;25.73;
12542;PMS3003;6337;49.556;25.594;2022-11-15T10:54:58;49.73;25.30;
12542;PMS3003;6337;49.556;25.594;2022-11-15T10:57:29;46.13;21.23;
12542;PMS3003;6337;49.556;25.594;2022-11-15T10:59:59;43.63;20.53;
12542;PMS3003;6337;49.556;25.594;2022-11-15T11:02:30;45.60;20.83;
12542;PMS3003;6337;49.556;25.594;2022-11-15T11:05:25;41.83;20.60;
12542;PMS3003;6337;49.556;25.594;2022-11-15T11:07:56;36.93;20.00;
12542;PMS3003;6337;49.556;25.594;2022-11-15T11:10:28;39.17;21.37;
12542;PMS3003;6337;49.556;25.594;2022-11-15T11:13:12;38.63;20.80;
12542;PMS3003;6337;49.556;25.594;2022-11-15T11:15:51;35.00;20.57;
12542;PMS3003;6337;49.556;25.594;2022-11-15T11:18:23;40.17;21.70;
12542;PMS3003;6337;49.556;25.594;2022-11-15T11:20:57;52.03;24.47;
12542;PMS3003;6337;49.556;25.594;2022-11-15T11:23:37;48.57;22.77;
12542;PMS3003;6337;49.556;25.594;2022-11-15T11:26:11;44.13;21.37;
12542;PMS3003;6337;49.556;25.594;2022-11-15T11:28:44;49.03;21.57;
12542;PMS3003;6337;49.556;25.594;2022-11-15T11:31:20;53.43;23.93;
12542;PMS3003;6337;49.556;25.594;2022-11-15T11:33:54;50.63;24.40;
12542;PMS3003;6337;49.556;25.594;2022-11-15T11:36:34;45.37;24.10;
12542;PMS3003;6337;49.556;25.594;2022-11-15T11:39:17;39.40;20.97;
12542;PMS3003;6337;49.556;25.594;2022-11-15T11:42:02;47.37;23.60;
12542;PMS3003;6337;49.556;25.594;2022-11-15T11:44:32;43.93;21.83;
12542;PMS3003;6337;49.556;25.594;2022-11-15T11:47:14;48.20;19.67;
12542;PMS3003;6337;49.556;25.594;2022-11-15T11:49:49;41.53;21.03;
12542;PMS3003;6337;49.556;25.594;2022-11-15T11:52:26;39.70;20.83;
12542;PMS3003;6337;49.556;25.594;2022-11-15T11:54:59;36.87;18.77;
12542;PMS3003;6337;49.556;25.594;2022-11-15T11:57:39;41.77;21.53;
12542;PMS3003;6337;49.556;25.594;2022-11-15T12:00:15;44.07;21.00;
12542;PMS3003;6337;49.556;25.594;2022-11-15T12:03:03;40.93;22.13;
12542;PMS3003;6337;49.556;25.594;2022-11-15T12:05:38;35.33;19.40;
12542;PMS3003;6337;49.556;25.594;2022-11-15T12:08:15;37.57;19.80;
12542;PMS3003;6337;49.556;25.594;2022-11-15T12:10:47;35.90;18.37;
12542;PMS3003;6337;49.556;25.594;2022-11-15T12:13:19;45.80;22.80;
12542;PMS3003;6337;49.556;25.594;2022-11-15T12:18:37;36.83;20.83;
12542;PMS3003;6337;49.556;25.594;2022-11-15T12:21:15;41.37;24.83;
12542;PMS3003;6337;49.556;25.594;2022-11-15T12:23:46;46.43;24.47;
12542;PMS3003;6337;49.556;25.594;2022-11-15T12:26:32;43.60;22.47;
12542;PMS3003;6337;49.556;25.594;2022-11-15T12:29:11;48.07;24.07;
12542;PMS3003;6337;49.556;25.594;2022-11-15T12:31:44;45.83;23.13;
12542;PMS3003;6337;49.556;25.594;2022-11-15T12:34:15;41.13;22.10;
12542;PMS3003;6337;49.556;25.594;2022-11-15T12:36:58;40.63;23.10;
12542;PMS3003;6337;49.556;25.594;2022-11-15T12:53:30;39.77;22.43;
12542;PMS3003;6337;49.556;25.594;2022-11-15T12:59:06;46.10;22.90;
12542;PMS3003;6337;49.556;25.594;2022-11-15T13:04:37;64.90;33.50;
12542;PMS3003;6337;49.556;25.594;2022-11-15T13:07:07;68.77;38.40;
12542;PMS3003;6337;49.556;25.594;2022-11-15T13:10:07;58.67;29.90;
12542;PMS3003;6337;49.556;25.594;2022-11-15T13:12:59;57.97;27.17;
12542;PMS3003;6337;49.556;25.594;2022-11-15T13:15:36;57.47;29.13;
12542;PMS3003;6337;49.556;25.594;2022-11-15T13:18:28;52.70;26.10;
12542;PMS3003;6337;49.556;25.594;2022-11-15T13:21:02;61.67;25.60;
12542;PMS3003;6337;49.556;25.594;2022-11-15T13:23:54;61.73;29.10;
12542;PMS3003;6337;49.556;25.594;2022-11-15T13:26:22;67.40;24.87;
12542;PMS3003;6337;49.556;25.594;2022-11-15T13:29:00;59.00;25.73;
12542;PMS3003;6337;49.556;25.594;2022-11-15T13:31:30;58.20;27.73;
12542;PMS3003;6337;49.556;25.594;2022-11-15T13:34:14;59.67;28.17;
12542;PMS3003;6337;49.556;25.594;2022-11-15T13:36:52;60.77;26.93;
12542;PMS3003;6337;49.556;25.594;2022-11-15T13:39:25;65.23;30.00;
12542;PMS3003;6337;49.556;25.594;2022-11-15T13:41:58;66.17;30.47;
12542;PMS3003;6337;49.556;25.594;2022-11-15T13:44:54;57.80;26.73;
12542;PMS3003;6337;49.556;25.594;2022-11-15T13:47:25;66.73;29.00;
12542;PMS3003;6337;49.556;25.594;2022-11-15T13:50:10;70.00;29.60;
12542;PMS3003;6337;49.556;25.594;2022-11-15T13:52:39;64.33;33.33;
12542;PMS3003;6337;49.556;25.594;2022-11-15T13:55:09;56.30;27.90;
12542;PMS3003;6337;49.556;25.594;2022-11-15T13:57:39;66.10;28.80;
12542;PMS3003;6337;49.556;25.594;2022-11-15T14:00:24;65.57;29.77;
12542;PMS3003;6337;49.556;25.594;2022-11-15T14:02:53;66.37;31.30;
12542;PMS3003;6337;49.556;25.594;2022-11-15T14:05:22;67.97;28.83;
12542;PMS3003;6337;49.556;25.594;2022-11-15T14:07:54;64.80;30.30;
12542;PMS3003;6337;49.556;25.594;2022-11-15T14:10:27;66.47;30.43;
12542;PMS3003;6337;49.556;25.594;2022-11-15T14:12:57;70.80;30.83;
12542;PMS3003;6337;49.556;25.594;2022-11-15T14:15:32;71.20;28.53;
12542;PMS3003;6337;49.556;25.594;2022-11-15T14:18:01;76.53;33.00;
12542;PMS3003;6337;49.556;25.594;2022-11-15T14:20:31;76.80;33.47;
12542;PMS3003;6337;49.556;25.594;2022-11-15T14:23:05;69.13;32.10;
12542;PMS3003;6337;49.556;25.594;2022-11-15T14:25:55;85.90;33.00;
12542;PMS3003;6337;49.556;25.594;2022-11-15T14:31:14;82.33;36.83;
12542;PMS3003;6337;49.556;25.594;2022-11-15T14:33:55;95.27;37.33;
12542;PMS3003;6337;49.556;25.594;2022-11-15T14:36:23;75.20;37.30;
12542;PMS3003;6337;49.556;25.594;2022-11-15T14:38:51;108.27;39.10;
12542;PMS3003;6337;49.556;25.594;2022-11-15T14:58:53;102.43;40.33;
12542;PMS3003;6337;49.556;25.594;2022-11-15T15:01:26;106.53;38.07;
12542;PMS3003;6337;49.556;25.594;2022-11-15T15:03:54;108.40;47.10;
12542;PMS3003;6337;49.556;25.594;2022-11-15T15:06:23;130.77;47.57;
12542;PMS3003;6337;49.556;25.594;2022-11-15T15:08:53;120.23;48.10;
12542;PMS3003;6337;49.556;25.594;2022-11-15T15:11:21;129.27;42.13;
12542;PMS3003;6337;49.556;25.594;2022-11-15T17:02:35;135.00;43.00;
12542;PMS3003;6337;49.556;25.594;2022-11-15T17:05:04;229.37;54.40;
12542;PMS3003;6337;49.556;25.594;2022-11-15T17:07:34;221.43;58.37;
12542;PMS3003;6337;49.556;25.594;2022-11-15T17:10:03;248.40;61.43;
12542;PMS3003;6337;49.556;25.594;2022-11-15T17:12:41;161.57;47.20;
12542;PMS3003;6337;49.556;25.594;2022-11-15T17:15:24;155.60;50.70;
12542;PMS3003;6337;49.556;25.594;2022-11-15T17:32:40;172.83;45.63;
12542;PMS3003;6337;49.556;25.594;2022-11-15T17:35:11;238.97;59.60;
12542;PMS3003;6337;49.556;25.594;2022-11-15T17:37:45;192.60;47.30;
12542;PMS3003;6337;49.556;25.594;2022-11-15T17:40:13;175.70;46.47;
12542;PMS3003;6337;49.556;25.594;2022-11-15T17:42:45;128.97;42.53;
12542;PMS3003;6337;49.556;25.594;2022-11-15T17:45:15;270.20;54.97;
12542;PMS3003;6337;49.556;25.594;2022-11-15T17:47:47;266.33;72.30;
12542;PMS3003;6337;49.556;25.594;2022-11-15T17:50:19;238.47;50.43;
12542;PMS3003;6337;49.556;25.594;2022-11-15T17:52:49;316.37;70.50;
12542;PMS3003;6337;49.556;25.594;2022-11-15T17:55:22;239.13;56.20;
12542;PMS3003;6337;49.556;25.594;2022-11-15T17:57:56;269.37;61.20;
12542;PMS3003;6337;49.556;25.594;2022-11-15T18:00:24;158.13;43.40;
12542;PMS3003;6337;49.556;25.594;2022-11-15T18:02:57;148.67;49.83;
12542;PMS3003;6337;49.556;25.594;2022-11-15T18:05:25;130.90;44.73;
12542;PMS3003;6337;49.556;25.594;2022-11-15T18:08:08;234.43;47.60;
12542;PMS3003;6337;49.556;25.594;2022-11-15T18:10:48;134.00;39.53;
12542;PMS3003;6337;49.556;25.594;2022-11-15T18:13:18;205.40;47.17;
12542;PMS3003;6337;49.556;25.594;2022-11-15T18:15:58;302.50;69.37;
12542;PMS3003;6337;49.556;25.594;2022-11-15T18:18:32;197.50;53.23;